»·PEaware :: N1778D KBUR-KSJC

N1778D :: KBUR-KSJC

FLIGHT INFORMATION

Flight Status: Arrived
Operator: Privately registered:
United States
More flights under this callsign
Pilot: Michal O. (28532)
Aircraft: Diamond DA-62
(DA62)
More flights by this aircraft type
Origin: KBUR Bob Hope-Burbank
United States
Destination: KSJC Mineta San Jose Intl
United States
More flights between these airports :: More routes between these airports
Route: VPLRB KEMT
File this flight plan on PilotEdge
Remarks:
Altitude:
(Current/Filed)
12,500ft
Speed:
(Current/Filed)
160kts
Departed: 12-Apr-21 06:02 PM
Arrived: 12-Apr-21 07:38 PM
Distance/Time
Traveled:
257nm/1:35
Distance/Time
To Go:
Arrived

Flight Plot

Page will automatically refresh every two minutes.

Flight plan parsing failed; only flown route is shown


Map Options




Map Legend


Flown Route
Filed Route
Departure Airport
Arrival Airport
Navaid (VOR, NDB)
Fix

Horizontal Profiles

Position Reports

Time Latitude Longitude Heading Altitude Ground
Speed
12-Apr-21 18:00 33.737334 -118.726814 320 12500ft 178kts
12-Apr-21 18:01 33.777775 -118.761281 320 12500ft 178kts
12-Apr-21 18:02 33.818090 -118.795639 320 12499ft 178kts
12-Apr-21 18:03 33.858625 -118.830217 320 12499ft 177kts
12-Apr-21 18:04 33.898896 -118.864618 320 12499ft 177kts
12-Apr-21 18:05 33.938829 -118.898766 320 12499ft 177kts
12-Apr-21 18:06 33.979505 -118.933585 320 12499ft 177kts
12-Apr-21 18:07 34.019597 -118.967970 320 12499ft 177kts
12-Apr-21 18:08 34.060011 -119.002653 321 12499ft 178kts
12-Apr-21 18:09 34.100277 -119.037249 321 12498ft 178kts
12-Apr-21 18:10 34.141295 -119.071520 321 12496ft 178kts
12-Apr-21 18:11 34.182268 -119.105277 322 12493ft 177kts
12-Apr-21 18:12 34.222904 -119.138778 322 12490ft 176kts
12-Apr-21 18:13 34.263401 -119.172211 322 12489ft 176kts
12-Apr-21 18:14 34.303811 -119.205611 322 12489ft 175kts
12-Apr-21 18:15 34.344023 -119.238883 322 12489ft 175kts
12-Apr-21 18:16 34.384287 -119.272239 322 12489ft 175kts
12-Apr-21 18:17 34.424422 -119.305526 322 12489ft 175kts
12-Apr-21 18:18 34.464610 -119.338902 322 12489ft 175kts
12-Apr-21 18:19 34.504909 -119.372406 322 12489ft 175kts
12-Apr-21 18:20 34.545119 -119.405878 322 12488ft 175kts
12-Apr-21 18:21 34.585197 -119.439277 322 12486ft 175kts
12-Apr-21 18:22 34.625794 -119.473184 322 12224ft 179kts
12-Apr-21 18:23 34.667188 -119.507753 322 11895ft 181kts
12-Apr-21 18:24 34.708739 -119.542520 322 11481ft 181kts
12-Apr-21 18:25 34.750233 -119.577280 323 11067ft 181kts
12-Apr-21 18:26 34.791806 -119.612128 323 10651ft 181kts
12-Apr-21 18:27 34.833226 -119.646916 323 10237ft 181kts
12-Apr-21 18:28 34.874586 -119.681702 322 9836ft 181kts
12-Apr-21 18:29 34.915735 -119.716314 322 9435ft 181kts
12-Apr-21 18:30 34.957680 -119.751669 323 9028ft 182kts
12-Apr-21 18:31 34.999229 -119.786730 323 8624ft 181kts
12-Apr-21 18:32 35.040151 -119.821281 323 8452ft 175kts
12-Apr-21 18:33 35.079888 -119.854882 322 8453ft 173kts
12-Apr-21 18:35 35.120370 -119.886526 326 8453ft 173kts
12-Apr-21 18:36 35.161573 -119.917555 326 8452ft 174kts
12-Apr-21 18:37 35.202635 -119.948494 325 8453ft 174kts
12-Apr-21 18:38 35.243925 -119.979638 325 8453ft 174kts
12-Apr-21 18:39 35.285141 -120.010797 326 8455ft 173kts
12-Apr-21 18:40 35.325936 -120.041623 326 8463ft 172kts
12-Apr-21 18:41 35.366663 -120.072448 325 8467ft 172kts
12-Apr-21 18:42 35.407480 -120.103386 325 8460ft 172kts
12-Apr-21 18:43 35.448463 -120.134499 325 8451ft 173kts
12-Apr-21 18:44 35.489493 -120.165662 326 8442ft 174kts
12-Apr-21 18:45 35.530697 -120.197007 325 8435ft 174kts
12-Apr-21 18:46 35.571737 -120.228260 325 8441ft 174kts
12-Apr-21 18:47 35.612861 -120.259618 325 8444ft 174kts
12-Apr-21 18:48 35.654030 -120.291057 325 8443ft 174kts
12-Apr-21 18:49 35.691379 -120.328467 317 8443ft 173kts
12-Apr-21 18:50 35.728263 -120.366811 317 8443ft 173kts
12-Apr-21 18:51 35.765069 -120.405190 317 8443ft 173kts
12-Apr-21 18:52 35.801700 -120.443448 317 8443ft 173kts
12-Apr-21 18:53 35.838412 -120.481855 317 8443ft 173kts
12-Apr-21 18:54 35.875168 -120.520345 317 8440ft 173kts
12-Apr-21 18:54 35.905706 -120.552349 317 8436ft 173kts
12-Apr-21 18:56 35.948592 -120.597381 317 8431ft 173kts
12-Apr-21 18:57 35.985360 -120.636030 318 8427ft 173kts
12-Apr-21 18:58 36.022199 -120.674786 317 8426ft 174kts
12-Apr-21 18:58 36.052892 -120.707132 317 8426ft 175kts
12-Apr-21 18:59 36.090037 -120.746318 317 8426ft 175kts
12-Apr-21 19:01 36.138209 -120.783412 328 8426ft 176kts
12-Apr-21 19:01 36.173678 -120.808353 328 8426ft 176kts
12-Apr-21 19:02 36.216487 -120.838418 328 8426ft 175kts
12-Apr-21 19:03 36.258907 -120.868228 328 8426ft 175kts
12-Apr-21 19:05 36.308507 -120.903125 328 8426ft 175kts
12-Apr-21 19:06 36.351123 -120.933154 328 8426ft 175kts
12-Apr-21 19:06 36.386415 -120.958049 328 8426ft 175kts
12-Apr-21 19:07 36.428746 -120.987948 328 8435ft 174kts
12-Apr-21 19:08 36.470995 -121.017845 328 8447ft 174kts
12-Apr-21 19:09 36.513139 -121.047683 329 8451ft 174kts
12-Apr-21 19:10 36.555336 -121.077584 329 8455ft 174kts
12-Apr-21 19:11 36.596547 -121.108731 322 8458ft 174kts
12-Apr-21 19:12 36.635000 -121.145840 321 8467ft 175kts
12-Apr-21 19:13 36.673218 -121.183376 320 8461ft 175kts
12-Apr-21 19:14 36.711551 -121.220977 321 8479ft 175kts
12-Apr-21 19:15 36.749997 -121.258658 320 8470ft 174kts
12-Apr-21 19:16 36.788157 -121.296293 321 8465ft 176kts
12-Apr-21 19:17 36.826490 -121.333988 321 8478ft 176kts
12-Apr-21 19:18 36.864809 -121.371742 321 8482ft 173kts
12-Apr-21 19:19 36.902833 -121.409412 321 8477ft 175kts
12-Apr-21 19:20 36.939969 -121.448460 317 8474ft 174kts
12-Apr-21 19:21 36.974316 -121.487239 318 8403ft 153kts
12-Apr-21 19:22 37.006650 -121.523881 317 7729ft 161kts
12-Apr-21 19:23 37.038991 -121.560516 317 7030ft 151kts
12-Apr-21 19:24 37.069557 -121.595180 317 6382ft 143kts
12-Apr-21 19:25 37.098566 -121.628095 317 5745ft 139kts
12-Apr-21 19:26 37.126929 -121.660300 316 5148ft 137kts
12-Apr-21 19:27 37.154910 -121.692095 315 4551ft 135kts
12-Apr-21 19:28 37.180769 -121.721543 315 3996ft 134kts
12-Apr-21 19:29 37.205168 -121.749343 314 3471ft 133kts
12-Apr-21 19:30 37.227326 -121.774758 314 2934ft 137kts
12-Apr-21 19:31 37.248821 -121.802519 309 2499ft 137kts
12-Apr-21 19:32 37.270206 -121.828872 315 2174ft 134kts
12-Apr-21 19:33 37.294073 -121.855023 316 1687ft 139kts
12-Apr-21 19:34 37.316323 -121.879253 318 1132ft 103kts
12-Apr-21 19:35 37.338133 -121.903111 317 575ft 88kts
12-Apr-21 19:36 37.356919 -121.923562 317 91ft 73kts
12-Apr-21 19:37 37.362158 -121.930933 265 50ft 0kts
12-Apr-21 19:38 37.361588 -121.931599 231 50ft 17kts
12-Apr-21 19:39 37.361280 -121.934788 298 51ft 0kts
12-Apr-21 19:40 37.361292 -121.934803 312 51ft 0kts
12-Apr-21 19:41 37.361291 -121.934803 312 51ft 0kts
12-Apr-21 19:42 37.361291 -121.934803 312 51ft 0kts

Navigation Log

Ident Type
Flight plan parsing failed, navigation log unavailable